Time;durP1;ratioP1;P1;durP2;ratioP2;P2;SDS_P1;SDS_P2;PMS_P1;PMS_P2;Temp;Humidity;BMP_temperature;BMP_pressure;BME280_temperature;BME280_humidity;BME280_pressure;Samples;Min_cycle;Max_cycle;Signal;HPM_P1;HPM_P2
2021/03/30 00:00:22;;;;;;;8.45;3.00;;;;;;;;;;5030637;28;20449;-63
2021/03/30 00:02:47;;;;;;;11.77;3.10;;;;;;;;;;5029620;28;20040;-64
2021/03/30 00:05:13;;;;;;;12.10;4.15;;;;;;;;;;5026199;28;20041;-63
2021/03/30 00:07:38;;;;;;;10.50;3.67;;;;;;;;;;5029646;28;20025;-63
2021/03/30 00:10:05;;;;;;;6.70;3.45;;;;;;;;;;5030383;28;20486;-63
2021/03/30 00:12:30;;;;;;;9.48;3.50;;;;;;;;;;5029479;28;20037;-63
2021/03/30 00:14:55;;;;;;;11.27;3.95;;;;;;;;;;5029770;28;20029;-63
2021/03/30 00:17:20;;;;;;;8.07;3.63;;;;;;;;;;5030078;28;20425;-63
2021/03/30 00:19:45;;;;;;;6.88;3.40;;;;;;;;;;5029978;28;20104;-63
2021/03/30 00:22:11;;;;;;;6.50;3.67;;;;;;;;;;5029910;28;20026;-63
2021/03/30 00:24:36;;;;;;;13.32;3.47;;;;;;;;;;5025441;28;20075;-63
2021/03/30 00:27:01;;;;;;;13.73;4.10;;;;;;;;;;5015454;28;20026;-64
2021/03/30 00:29:26;;;;;;;15.35;4.05;;;;;;;;;;5025314;28;20501;-64
2021/03/30 00:31:51;;;;;;;14.37;3.90;;;;;;;;;;5026695;28;20033;-63
2021/03/30 00:34:17;;;;;;;8.13;3.90;;;;;;;;;;5026806;28;20290;-63
2021/03/30 00:36:42;;;;;;;9.53;3.60;;;;;;;;;;5030097;28;20151;-63
2021/03/30 00:39:07;;;;;;;10.52;4.07;;;;;;;;;;5029109;28;20260;-64
2021/03/30 00:41:39;;;;;;;8.07;3.10;;;;;;;;;;5029684;28;20063;-63
2021/03/30 00:44:11;;;;;;;9.98;3.15;;;;;;;;;;5033286;28;20212;-63
2021/03/30 00:46:37;;;;;;;9.23;3.72;;;;;;;;;;5033827;28;20024;-63
2021/03/30 00:49:02;;;;;;;10.45;3.72;;;;;;;;;;5033023;28;20503;-63
2021/03/30 00:51:28;;;;;;;9.90;3.55;;;;;;;;;;5026554;28;20109;-63
2021/03/30 00:53:53;;;;;;;6.72;3.35;;;;;;;;;;5027558;28;20033;-64
2021/03/30 00:56:18;;;;;;;6.28;3.20;;;;;;;;;;5033888;28;20032;-63
2021/03/30 00:58:44;;;;;;;15.77;3.47;;;;;;;;;;5033151;28;20382;-65
2021/03/30 01:01:09;;;;;;;14.60;4.50;;;;;;;;;;5033740;28;20075;-65
2021/03/30 01:03:35;;;;;;;7.03;3.40;;;;;;;;;;5032435;28;20027;-63
2021/03/30 01:06:00;;;;;;;13.90;3.97;;;;;;;;;;5033599;28;20628;-65
2021/03/30 01:08:36;;;;;;;8.02;3.50;;;;;;;;;;5031916;28;20267;-63
2021/03/30 01:11:16;;;;;;;10.07;3.40;;;;;;;;;;5031653;28;20029;-63
2021/03/30 01:13:41;;;;;;;;;;;;;;;;;;5024232;28;20046;-63
2021/03/30 01:16:11;;;;;;;9.70;3.90;;;;;;;;;;5021039;28;19959;-63
2021/03/30 01:18:43;;;;;;;8.95;4.10;;;;;;;;;;5033400;28;20147;-64
2021/03/30 01:21:27;;;;;;;8.90;3.60;;;;;;;;;;5032897;28;20367;-63
2021/03/30 01:24:01;;;;;;;6.85;3.17;;;;;;;;;;5027460;28;20014;-66
2021/03/30 01:26:43;;;;;;;8.45;4.03;;;;;;;;;;5023564;28;20477;-62
2021/03/30 01:29:21;;;;;;;6.20;3.35;;;;;;;;;;5033366;28;20036;-62
2021/03/30 01:31:48;;;;;;;11.85;4.18;;;;;;;;;;5032402;28;20109;-64
2021/03/30 01:34:14;;;;;;;10.13;3.50;;;;;;;;;;5032512;28;20470;-63
2021/03/30 01:36:41;;;;;;;7.10;3.55;;;;;;;;;;5033349;28;20029;-62
2021/03/30 01:39:10;;;;;;;8.80;3.35;;;;;;;;;;5031636;28;20040;-63
2021/03/30 01:41:35;;;;;;;8.65;3.55;;;;;;;;;;5032331;28;20033;-63
2021/03/30 01:44:01;;;;;;;20.83;3.88;;;;;;;;;;5017756;28;20021;-63
2021/03/30 01:46:29;;;;;;;7.45;3.90;;;;;;;;;;5028195;28;20293;-62
2021/03/30 01:48:54;;;;;;;9.18;3.70;;;;;;;;;;5032730;28;20387;-63
2021/03/30 01:51:19;;;;;;;9.07;3.42;;;;;;;;;;5032035;28;20108;-64
2021/03/30 01:53:45;;;;;;;7.82;4.05;;;;;;;;;;5030924;28;20033;-62
2021/03/30 01:56:11;;;;;;;11.27;3.80;;;;;;;;;;5032557;28;20024;-63
2021/03/30 01:58:37;;;;;;;10.93;3.53;;;;;;;;;;5029269;28;20025;-64
2021/03/30 02:01:03;;;;;;;8.23;3.55;;;;;;;;;;5032226;28;20017;-64
2021/03/30 02:03:28;;;;;;;10.90;4.75;;;;;;;;;;5032082;28;20367;-63
2021/03/30 02:05:55;;;;;;;7.63;3.38;;;;;;;;;;5027651;28;20029;-63
2021/03/30 02:08:20;;;;;;;8.00;3.58;;;;;;;;;;5029134;28;20442;-63
2021/03/30 02:10:48;;;;;;;9.02;3.55;;;;;;;;;;5032721;28;20025;-63
2021/03/30 02:13:24;;;;;;;10.10;3.92;;;;;;;;;;5031499;28;20253;-62
2021/03/30 02:15:53;;;;;;;10.50;3.85;;;;;;;;;;5032599;28;20025;-63
2021/03/30 02:18:19;;;;;;;10.13;4.55;;;;;;;;;;5031887;28;20021;-63
2021/03/30 02:20:47;;;;;;;9.68;4.00;;;;;;;;;;5032202;28;20386;-63
2021/03/30 02:23:14;;;;;;;10.20;4.22;;;;;;;;;;5031505;28;20053;-64
2021/03/30 02:25:42;;;;;;;9.43;3.58;;;;;;;;;;5027026;28;20079;-63
2021/03/30 02:28:10;;;;;;;15.45;4.35;;;;;;;;;;5029063;28;20041;-63
2021/03/30 02:30:36;;;;;;;8.07;3.70;;;;;;;;;;5030286;28;20022;-63
2021/03/30 02:33:03;;;;;;;11.43;3.70;;;;;;;;;;5031664;28;20033;-63
2021/03/30 02:35:28;;;;;;;9.95;3.70;;;;;;;;;;5032168;28;20567;-63
2021/03/30 02:37:55;;;;;;;9.85;3.90;;;;;;;;;;5030132;28;20037;-63
2021/03/30 02:40:21;;;;;;;7.20;3.60;;;;;;;;;;5040318;22;20018;-86
2021/03/30 02:42:46;;;;;;;11.55;4.05;;;;;;;;;;5040159;28;20100;-86
2021/03/30 02:45:13;;;;;;;13.18;3.75;;;;;;;;;;5027477;28;20761;-86
2021/03/30 02:47:40;;;;;;;12.40;3.85;;;;;;;;;;5017681;28;20135;-85
2021/03/30 02:50:06;;;;;;;8.60;3.75;;;;;;;;;;5025601;28;20041;-86
2021/03/30 02:52:33;;;;;;;6.88;3.75;;;;;;;;;;5011849;28;20058;-86
2021/03/30 02:54:58;;;;;;;9.50;3.53;;;;;;;;;;5019806;28;20037;-86
2021/03/30 02:57:24;;;;;;;6.15;3.28;;;;;;;;;;5020406;28;20017;-85
2021/03/30 02:59:52;;;;;;;19.17;3.60;;;;;;;;;;5015257;28;20482;-86
2021/03/30 03:02:17;;;;;;;9.55;4.15;;;;;;;;;;5017086;28;20163;-86
2021/03/30 03:04:46;;;;;;;13.38;4.00;;;;;;;;;;5019960;28;20473;-86
2021/03/30 03:07:12;;;;;;;10.43;4.03;;;;;;;;;;5022240;28;20060;-85
2021/03/30 03:09:38;;;;;;;9.55;4.15;;;;;;;;;;5026425;28;20473;-86
2021/03/30 03:12:03;;;;;;;11.18;4.57;;;;;;;;;;5029117;28;20094;-86
2021/03/30 03:14:29;;;;;;;10.73;4.72;;;;;;;;;;5014854;28;20045;-86
2021/03/30 03:16:55;;;;;;;13.88;4.65;;;;;;;;;;5029035;28;20029;-86
2021/03/30 03:19:21;;;;;;;10.02;4.45;;;;;;;;;;5028192;28;20162;-86
2021/03/30 03:21:47;;;;;;;10.38;3.80;;;;;;;;;;5018087;28;20029;-86
2021/03/30 03:24:13;;;;;;;9.32;4.15;;;;;;;;;;5025220;28;20009;-86
2021/03/30 03:26:39;;;;;;;13.88;4.30;;;;;;;;;;5020071;28;20025;-86
2021/03/30 03:29:24;;;;;;;12.18;4.43;;;;;;;;;;5020978;28;20030;-86
2021/03/30 03:31:49;;;;;;;10.30;3.50;;;;;;;;;;5013401;28;20030;-86
2021/03/30 03:34:15;;;;;;;15.43;3.67;;;;;;;;;;5008521;28;20682;-86
2021/03/30 03:36:42;;;;;;;12.65;4.50;;;;;;;;;;5013567;28;20022;-86
2021/03/30 03:39:08;;;;;;;12.65;4.15;;;;;;;;;;5008966;28;20025;-86
2021/03/30 03:41:34;;;;;;;10.48;4.53;;;;;;;;;;5012139;28;20029;-86
2021/03/30 03:43:59;;;;;;;10.10;3.85;;;;;;;;;;5022853;28;20392;-86
2021/03/30 03:46:24;;;;;;;11.75;4.35;;;;;;;;;;5017511;28;20025;-87
2021/03/30 03:48:49;;;;;;;10.90;3.92;;;;;;;;;;5025415;28;20032;-85
2021/03/30 03:51:16;;;;;;;12.30;4.82;;;;;;;;;;5026635;28;20529;-85
2021/03/30 03:53:42;;;;;;;13.55;4.47;;;;;;;;;;5012444;28;20520;-86
2021/03/30 03:56:08;;;;;;;14.93;4.40;;;;;;;;;;5009680;28;20030;-86
2021/03/30 03:58:38;;;;;;;9.18;4.50;;;;;;;;;;5008821;28;20032;-86
2021/03/30 04:01:05;;;;;;;13.73;5.40;;;;;;;;;;5018691;28;20026;-85
2021/03/30 04:03:36;;;;;;;16.15;4.18;;;;;;;;;;5009914;28;20104;-86
2021/03/30 04:06:10;;;;;;;10.32;4.50;;;;;;;;;;5027528;28;20036;-86
2021/03/30 04:08:40;;;;;;;14.10;4.80;;;;;;;;;;5009884;28;20032;-85
2021/03/30 04:11:05;;;;;;;9.88;4.28;;;;;;;;;;5021241;28;20044;-86
2021/03/30 04:13:31;;;;;;;9.68;4.28;;;;;;;;;;5014738;28;20026;-86
2021/03/30 04:16:00;;;;;;;16.50;4.60;;;;;;;;;;5015770;28;20359;-86
2021/03/30 04:18:25;;;;;;;24.25;4.85;;;;;;;;;;5008460;28;20509;-86
2021/03/30 04:20:51;;;;;;;14.63;5.03;;;;;;;;;;5017308;28;20029;-85
2021/03/30 04:23:22;;;;;;;13.75;4.75;;;;;;;;;;5015553;28;20028;-85
2021/03/30 04:25:47;;;;;;;10.27;4.32;;;;;;;;;;5028174;28;20029;-85
2021/03/30 04:28:12;;;;;;;14.13;5.18;;;;;;;;;;5041353;28;20056;-86
2021/03/30 04:30:37;;;;;;;14.65;4.50;;;;;;;;;;5036141;28;20022;-88
2021/03/30 04:33:03;;;;;;;15.68;4.43;;;;;;;;;;5025523;28;20026;-88
2021/03/30 04:35:28;;;;;;;8.35;3.95;;;;;;;;;;5021798;28;20037;-88
2021/03/30 04:37:53;;;;;;;12.45;4.30;;;;;;;;;;5005957;28;20033;-88
2021/03/30 04:40:18;;;;;;;16.55;4.30;;;;;;;;;;5011069;28;20112;-88
2021/03/30 04:42:44;;;;;;;11.13;4.35;;;;;;;;;;5011247;28;20088;-87
2021/03/30 04:45:10;;;;;;;9.82;4.72;;;;;;;;;;5007781;28;20037;-88
2021/03/30 04:47:35;;;;;;;9.68;4.30;;;;;;;;;;5016076;28;20061;-87
2021/03/30 04:50:01;;;;;;;12.30;5.03;;;;;;;;;;5038177;28;20029;-88
2021/03/30 04:52:26;;;;;;;10.13;4.00;;;;;;;;;;5036734;28;20021;-87
2021/03/30 04:54:51;;;;;;;14.02;4.40;;;;;;;;;;5025922;28;20025;-87
2021/03/30 04:57:17;;;;;;;10.70;5.45;;;;;;;;;;5030976;28;20584;-87
2021/03/30 04:59:42;;;;;;;11.05;4.50;;;;;;;;;;5039212;28;20040;-87
2021/03/30 05:02:07;;;;;;;9.85;5.20;;;;;;;;;;5026747;28;20036;-87
2021/03/30 05:04:32;;;;;;;15.68;4.85;;;;;;;;;;5022025;28;20040;-87
2021/03/30 05:06:57;;;;;;;13.00;4.75;;;;;;;;;;5022524;28;20030;-87
2021/03/30 05:09:23;;;;;;;10.07;5.03;;;;;;;;;;5022147;28;20099;-88
2021/03/30 05:11:48;;;;;;;7.15;4.15;;;;;;;;;;5023255;28;20029;-87
2021/03/30 05:14:13;;;;;;;12.50;5.43;;;;;;;;;;5017542;28;20034;-87
2021/03/30 05:16:39;;;;;;;10.60;4.20;;;;;;;;;;5010388;28;20019;-87
2021/03/30 05:19:04;;;;;;;11.60;5.05;;;;;;;;;;5013244;28;20018;-87
2021/03/30 05:21:29;;;;;;;16.30;4.97;;;;;;;;;;5006225;28;20073;-87
2021/03/30 05:23:54;;;;;;;15.27;5.22;;;;;;;;;;5016208;28;20029;-87
2021/03/30 05:26:20;;;;;;;20.65;5.40;;;;;;;;;;5012290;28;20021;-87
2021/03/30 05:28:45;;;;;;;20.58;7.40;;;;;;;;;;5020043;28;20033;-87
2021/03/30 05:31:10;;;;;;;13.32;5.18;;;;;;;;;;5022715;28;20022;-87
2021/03/30 05:33:35;;;;;;;16.05;5.50;;;;;;;;;;5026956;28;20025;-88
2021/03/30 05:36:01;;;;;;;16.98;5.45;;;;;;;;;;5011595;28;20440;-87
2021/03/30 05:38:26;;;;;;;13.13;5.00;;;;;;;;;;5010680;28;20017;-87
2021/03/30 05:43:21;;;;;;;12.15;4.97;;;;;;;;;;5050924;28;20049;-66
2021/03/30 05:45:46;;;;;;;13.85;5.35;;;;;;;;;;5055869;28;20021;-67
2021/03/30 05:48:14;;;;;;;13.00;5.57;;;;;;;;;;5056183;28;20056;-67
2021/03/30 05:50:40;;;;;;;11.85;5.47;;;;;;;;;;5051723;28;20025;-67
2021/03/30 05:53:06;;;;;;;14.65;4.95;;;;;;;;;;5031991;28;20039;-66
2021/03/30 05:55:32;;;;;;;11.32;5.40;;;;;;;;;;5061558;22;20134;-63
2021/03/30 05:57:58;;;;;;;25.83;5.78;;;;;;;;;;5049583;28;20376;-63
2021/03/30 06:00:29;;;;;;;13.55;5.68;;;;;;;;;;5066393;28;20024;-63
2021/03/30 06:02:56;;;;;;;14.90;5.43;;;;;;;;;;5049756;28;20025;-63
2021/03/30 06:05:22;;;;;;;21.77;6.25;;;;;;;;;;5032820;28;20052;-64
2021/03/30 06:07:47;;;;;;;16.55;5.25;;;;;;;;;;5038188;28;20537;-63
2021/03/30 06:10:14;;;;;;;12.43;4.82;;;;;;;;;;5042111;28;20457;-63
2021/03/30 06:12:39;;;;;;;15.07;5.20;;;;;;;;;;5034783;28;20093;-65
2021/03/30 06:15:06;;;;;;;13.38;6.05;;;;;;;;;;5044754;28;20117;-65
2021/03/30 06:17:40;;;;;;;16.65;6.30;;;;;;;;;;5044843;28;20018;-64
2021/03/30 06:20:06;;;;;;;15.75;6.47;;;;;;;;;;5052227;28;20052;-63
2021/03/30 06:22:44;;;;;;;14.07;5.90;;;;;;;;;;5045998;28;20026;-63
2021/03/30 06:25:09;;;;;;;11.98;5.28;;;;;;;;;;5036419;28;20044;-63
2021/03/30 06:27:34;;;;;;;14.38;5.57;;;;;;;;;;5048989;28;20021;-63
2021/03/30 06:30:00;;;;;;;15.38;6.32;;;;;;;;;;5034621;28;20025;-63
2021/03/30 06:32:26;;;;;;;14.32;5.68;;;;;;;;;;5042607;28;20025;-65
2021/03/30 06:34:54;;;;;;;21.15;5.72;;;;;;;;;;5035688;28;20032;-63
2021/03/30 06:37:26;;;;;;;12.18;5.53;;;;;;;;;;5038429;28;20017;-63
2021/03/30 06:39:51;;;;;;;12.98;5.32;;;;;;;;;;5037747;28;20017;-63
2021/03/30 06:42:26;;;;;;;13.45;6.22;;;;;;;;;;5037005;28;20087;-63
2021/03/30 06:44:52;;;;;;;9.32;5.50;;;;;;;;;;5038028;28;20389;-63
2021/03/30 06:47:19;;;;;;;11.93;5.78;;;;;;;;;;5033258;28;20030;-63
2021/03/30 06:50:03;;;;;;;24.13;6.57;;;;;;;;;;5045250;28;20028;-64
2021/03/30 06:52:36;;;;;;;15.55;5.85;;;;;;;;;;5050904;28;20021;-64
2021/03/30 06:55:08;;;;;;;11.48;5.82;;;;;;;;;;5040037;28;20037;-64
2021/03/30 06:57:38;;;;;;;17.50;5.50;;;;;;;;;;5032697;28;20025;-63
2021/03/30 07:00:08;;;;;;;15.40;5.97;;;;;;;;;;5042639;28;20047;-64
2021/03/30 07:02:34;;;;;;;9.63;4.90;;;;;;;;;;5035485;28;20071;-64
2021/03/30 07:04:59;;;;;;;12.35;5.35;;;;;;;;;;5031923;28;20040;-64
2021/03/30 07:07:26;;;;;;;11.32;4.90;;;;;;;;;;5041815;28;20024;-62
2021/03/30 07:09:52;;;;;;;12.43;4.68;;;;;;;;;;5036808;28;20029;-62
2021/03/30 07:12:20;;;;;;;10.50;5.05;;;;;;;;;;5031642;28;20053;-62
2021/03/30 07:14:46;;;;;;;12.13;4.95;;;;;;;;;;5032013;28;20100;-61
2021/03/30 07:17:13;;;;;;;11.55;5.35;;;;;;;;;;5035058;28;20108;-61
2021/03/30 07:19:38;;;;;;;20.80;5.32;;;;;;;;;;5045920;28;20024;-62
2021/03/30 07:22:08;;;;;;;10.80;4.97;;;;;;;;;;5049884;28;20025;-62
2021/03/30 07:24:41;;;;;;;10.82;5.22;;;;;;;;;;5047568;28;20036;-67
2021/03/30 07:27:12;;;;;;;8.38;4.93;;;;;;;;;;5034378;28;20037;-62
2021/03/30 07:29:40;;;;;;;12.07;5.57;;;;;;;;;;5035553;28;20040;-62
2021/03/30 07:32:06;;;;;;;9.20;4.95;;;;;;;;;;5040027;28;20022;-62
2021/03/30 07:34:40;;;;;;;12.20;4.47;;;;;;;;;;5048111;28;20032;-62
2021/03/30 07:37:08;;;;;;;13.32;5.45;;;;;;;;;;5042212;28;20264;-62
2021/03/30 07:39:39;;;;;;;12.32;5.20;;;;;;;;;;5031485;28;20562;-61
2021/03/30 07:42:04;;;;;;;16.10;5.07;;;;;;;;;;5038405;28;20112;-62
2021/03/30 07:44:30;;;;;;;13.73;5.78;;;;;;;;;;5032652;28;20053;-62
2021/03/30 07:46:55;;;;;;;16.92;4.90;;;;;;;;;;5039627;28;20394;-63
2021/03/30 07:49:23;;;;;;;11.73;5.35;;;;;;;;;;5050804;28;20029;-63
2021/03/30 07:51:48;;;;;;;10.30;5.03;;;;;;;;;;5042454;28;20485;-62
2021/03/30 07:54:14;;;;;;;15.27;5.67;;;;;;;;;;5030888;28;20095;-63
2021/03/30 07:56:39;;;;;;;11.43;4.90;;;;;;;;;;5031867;28;20033;-63
2021/03/30 07:59:05;;;;;;;10.07;4.60;;;;;;;;;;5030587;28;20479;-63
2021/03/30 08:01:31;;;;;;;12.05;5.07;;;;;;;;;;5042745;28;20021;-63
2021/03/30 08:03:56;;;;;;;17.17;4.78;;;;;;;;;;5050835;28;20028;-63
2021/03/30 08:06:32;;;;;;;12.35;5.25;;;;;;;;;;5031444;28;20106;-63
2021/03/30 08:09:00;;;;;;;7.43;4.25;;;;;;;;;;5047710;28;20041;-63
2021/03/30 08:11:38;;;;;;;8.07;4.30;;;;;;;;;;5048763;28;20013;-63
2021/03/30 08:14:03;;;;;;;8.90;4.97;;;;;;;;;;5042713;28;20031;-63
2021/03/30 08:16:29;;;;;;;11.52;5.15;;;;;;;;;;5030601;28;20449;-63
2021/03/30 08:18:54;;;;;;;11.38;5.10;;;;;;;;;;5044201;28;20445;-63
2021/03/30 08:21:20;;;;;;;11.73;5.50;;;;;;;;;;5047569;28;20022;-63
2021/03/30 08:23:51;;;;;;;21.75;6.43;;;;;;;;;;5034619;28;20021;-63
2021/03/30 08:26:18;;;;;;;9.95;5.18;;;;;;;;;;5034233;28;20048;-63
2021/03/30 08:28:59;;;;;;;9.90;5.40;;;;;;;;;;5044832;28;20513;-63
2021/03/30 08:31:35;;;;;;;9.57;5.20;;;;;;;;;;5038249;28;20021;-63
2021/03/30 08:34:02;;;;;;;17.30;5.38;;;;;;;;;;5037887;28;20025;-62
2021/03/30 08:36:27;;;;;;;8.95;4.78;;;;;;;;;;5038466;28;20032;-63
2021/03/30 08:38:53;;;;;;;14.33;5.77;;;;;;;;;;5048952;28;20021;-62
2021/03/30 08:41:37;;;;;;;10.85;5.20;;;;;;;;;;5038360;28;20024;-62
2021/03/30 08:44:09;;;;;;;7.97;4.50;;;;;;;;;;5049661;28;20024;-62
2021/03/30 08:46:38;;;;;;;11.95;4.78;;;;;;;;;;5037468;28;20051;-63
2021/03/30 08:49:21;;;;;;;13.35;4.78;;;;;;;;;;5047340;28;20021;-63
2021/03/30 08:51:47;;;;;;;11.52;5.45;;;;;;;;;;5033036;28;20079;-63
2021/03/30 08:54:12;;;;;;;10.43;4.60;;;;;;;;;;5041334;28;20029;-63
2021/03/30 08:56:38;;;;;;;13.20;5.38;;;;;;;;;;5039084;28;20021;-63
2021/03/30 08:59:03;;;;;;;8.80;5.20;;;;;;;;;;5030745;28;20037;-62
2021/03/30 09:01:28;;;;;;;13.90;4.72;;;;;;;;;;5033362;28;20463;-63
2021/03/30 09:03:54;;;;;;;14.00;4.97;;;;;;;;;;5041308;28;20032;-62
2021/03/30 09:06:33;;;;;;;11.63;5.63;;;;;;;;;;5044356;28;20267;-64
2021/03/30 09:08:58;;;;;;;13.20;4.80;;;;;;;;;;5035861;28;20014;-62
2021/03/30 09:11:26;;;;;;;14.07;5.55;;;;;;;;;;5048956;28;20508;-63
2021/03/30 09:13:57;;;;;;;19.20;6.03;;;;;;;;;;5046112;28;20762;-62
2021/03/30 09:16:22;;;;;;;14.55;6.18;;;;;;;;;;5044710;28;20037;-63
2021/03/30 09:18:48;;;;;;;14.13;5.75;;;;;;;;;;5041238;28;20087;-62
2021/03/30 09:21:17;;;;;;;11.67;5.00;;;;;;;;;;5043178;28;20021;-63
2021/03/30 09:23:43;;;;;;;21.33;7.30;;;;;;;;;;5036421;28;20263;-62
2021/03/30 09:26:17;;;;;;;12.23;5.50;;;;;;;;;;5049871;28;20112;-63
2021/03/30 09:28:43;;;;;;;15.60;7.20;;;;;;;;;;5033582;28;20026;-63
2021/03/30 09:31:08;;;;;;;19.73;6.55;;;;;;;;;;5038529;28;20030;-62
2021/03/30 09:33:34;;;;;;;12.00;5.60;;;;;;;;;;5053338;28;20060;-62
2021/03/30 09:36:00;;;;;;;13.02;5.25;;;;;;;;;;5044814;28;20096;-63
2021/03/30 09:38:25;;;;;;;16.88;6.32;;;;;;;;;;5048346;28;20025;-64
2021/03/30 09:40:50;;;;;;;17.77;7.20;;;;;;;;;;5050676;28;20083;-62
2021/03/30 09:43:19;;;;;;;14.65;7.10;;;;;;;;;;5041003;28;20343;-64
2021/03/30 09:45:45;;;;;;;19.13;6.35;;;;;;;;;;5037752;28;20778;-62
2021/03/30 09:48:11;;;;;;;18.58;7.85;;;;;;;;;;5037425;28;20021;-62
2021/03/30 09:50:41;;;;;;;15.45;6.97;;;;;;;;;;5034162;28;20049;-62
2021/03/30 09:53:07;;;;;;;17.97;7.60;;;;;;;;;;5044051;28;20546;-63
2021/03/30 09:55:32;;;;;;;18.63;7.60;;;;;;;;;;5040329;28;20067;-63
2021/03/30 09:57:59;;;;;;;18.80;8.10;;;;;;;;;;5033662;28;20049;-63
2021/03/30 10:00:24;;;;;;;21.70;9.15;;;;;;;;;;5033540;28;20032;-63
2021/03/30 10:02:50;;;;;;;22.27;9.10;;;;;;;;;;5044640;28;20024;-64
2021/03/30 10:05:15;;;;;;;16.73;8.68;;;;;;;;;;5038362;28;20091;-63
2021/03/30 10:07:41;;;;;;;19.30;10.00;;;;;;;;;;5048142;28;20064;-62
2021/03/30 10:10:06;;;;;;;26.55;12.20;;;;;;;;;;5036106;28;20303;-62
2021/03/30 10:12:46;;;;;;;27.20;11.70;;;;;;;;;;5041033;28;20021;-63
2021/03/30 10:15:12;;;;;;;18.83;9.35;;;;;;;;;;5046087;28;20466;-63
2021/03/30 10:17:37;;;;;;;24.33;10.30;;;;;;;;;;5047377;28;20029;-62
2021/03/30 10:20:03;;;;;;;18.55;10.00;;;;;;;;;;5041532;28;20021;-64
2021/03/30 10:22:33;;;;;;;22.45;9.48;;;;;;;;;;5042784;28;20018;-62
2021/03/30 10:25:34;;;;;;;16.90;8.32;;;;;;;;;;5042341;28;20056;-62
2021/03/30 10:28:00;;;;;;;21.85;9.70;;;;;;;;;;4973322;28;20097;-62
2021/03/30 10:30:30;;;;;;;17.38;8.70;;;;;;;;;;5020557;28;20464;-64
2021/03/30 10:32:59;;;;;;;16.05;9.27;;;;;;;;;;5036014;28;20028;-64
2021/03/30 10:35:24;;;;;;;19.97;9.37;;;;;;;;;;5034372;28;20059;-62
2021/03/30 10:37:50;;;;;;;24.77;9.25;;;;;;;;;;5038886;28;20861;-62
2021/03/30 10:40:16;;;;;;;14.67;6.70;;;;;;;;;;5047438;28;20017;-63
2021/03/30 10:42:41;;;;;;;16.27;6.85;;;;;;;;;;5045947;28;20325;-62
2021/03/30 10:45:08;;;;;;;16.83;7.55;;;;;;;;;;5037859;28;20461;-63
2021/03/30 10:47:34;;;;;;;22.45;8.40;;;;;;;;;;5041264;28;20044;-62
2021/03/30 10:50:00;;;;;;;21.70;6.28;;;;;;;;;;5048517;28;20029;-63
2021/03/30 10:52:29;;;;;;;12.40;6.28;;;;;;;;;;5042542;28;20025;-63
2021/03/30 10:54:55;;;;;;;11.77;5.67;;;;;;;;;;5035830;28;20129;-64
2021/03/30 10:57:22;;;;;;;12.65;6.50;;;;;;;;;;5031895;28;20112;-63
2021/03/30 10:59:47;;;;;;;15.38;7.35;;;;;;;;;;5042308;28;20057;-63
2021/03/30 11:02:13;;;;;;;12.83;5.20;;;;;;;;;;5040946;28;20491;-63
2021/03/30 11:04:39;;;;;;;17.48;6.80;;;;;;;;;;5040721;28;20355;-63
2021/03/30 11:07:04;;;;;;;18.98;8.68;;;;;;;;;;5050840;28;20029;-62
2021/03/30 11:09:30;;;;;;;17.13;7.50;;;;;;;;;;5050755;28;20432;-62
2021/03/30 11:11:55;;;;;;;14.27;6.95;;;;;;;;;;5036268;28;20032;-63
2021/03/30 11:14:21;;;;;;;13.43;7.35;;;;;;;;;;5032672;28;20022;-64
2021/03/30 11:16:46;;;;;;;15.05;7.38;;;;;;;;;;5038762;28;20031;-63
2021/03/30 11:19:13;;;;;;;14.02;6.57;;;;;;;;;;5046060;28;20021;-63
2021/03/30 11:21:38;;;;;;;14.27;6.93;;;;;;;;;;5041656;28;20009;-62
2021/03/30 11:24:05;;;;;;;11.20;5.03;;;;;;;;;;5038062;28;20392;-62
2021/03/30 11:26:30;;;;;;;16.17;5.63;;;;;;;;;;5050868;28;20025;-64
2021/03/30 11:28:57;;;;;;;12.68;5.65;;;;;;;;;;5045298;28;20019;-63
2021/03/30 11:31:54;;;;;;;9.88;4.97;;;;;;;;;;5043933;28;20021;-63
2021/03/30 11:37:00;;;;;;;13.52;6.25;;;;;;;;;;5034491;28;20071;-63
2021/03/30 11:39:25;;;;;;;12.35;6.35;;;;;;;;;;5035549;28;20393;-64
2021/03/30 11:41:50;;;;;;;15.10;6.30;;;;;;;;;;5043901;28;20028;-65
2021/03/30 11:44:15;;;;;;;12.00;5.78;;;;;;;;;;5055238;28;20021;-64
2021/03/30 11:46:41;;;;;;;11.53;4.87;;;;;;;;;;5070906;28;20016;-64
2021/03/30 11:49:06;;;;;;;10.18;4.70;;;;;;;;;;5043951;28;20267;-65
2021/03/30 11:51:31;;;;;;;12.53;5.00;;;;;;;;;;5047948;28;20021;-64
2021/03/30 11:53:56;;;;;;;9.45;4.85;;;;;;;;;;5035071;28;20272;-65
2021/03/30 11:56:23;;;;;;;11.83;4.13;;;;;;;;;;5047258;22;20053;-90
2021/03/30 11:58:48;;;;;;;10.52;5.68;;;;;;;;;;5052257;28;20048;-89
2021/03/30 12:01:14;;;;;;;8.82;4.15;;;;;;;;;;5029807;28;20488;-91
2021/03/30 12:03:39;;;;;;;10.93;4.10;;;;;;;;;;5020593;28;20021;-90
2021/03/30 12:06:07;;;;;;;10.68;4.30;;;;;;;;;;5011047;28;20052;-90
2021/03/30 12:08:33;;;;;;;10.60;5.00;;;;;;;;;;5004489;28;20018;-90
2021/03/30 12:10:59;;;;;;;13.57;4.80;;;;;;;;;;5009563;28;20102;-90
2021/03/30 12:13:27;;;;;;;7.72;3.65;;;;;;;;;;5012663;28;20064;-90
2021/03/30 12:15:52;;;;;;;10.43;4.15;;;;;;;;;;5010615;28;20029;-89
2021/03/30 12:18:18;;;;;;;5.90;3.50;;;;;;;;;;5027030;28;20041;-90
2021/03/30 12:20:43;;;;;;;10.90;4.78;;;;;;;;;;5010321;28;20103;-90
2021/03/30 12:23:08;;;;;;;13.93;4.35;;;;;;;;;;5014275;28;20029;-90
2021/03/30 12:25:34;;;;;;;13.88;4.63;;;;;;;;;;5003966;28;20565;-90
2021/03/30 12:27:59;;;;;;;5.32;2.92;;;;;;;;;;5027740;28;20025;-90
2021/03/30 12:30:24;;;;;;;5.97;3.60;;;;;;;;;;5010712;28;20029;-90
2021/03/30 12:32:50;;;;;;;9.05;4.13;;;;;;;;;;5026815;28;20298;-92
2021/03/30 12:35:15;;;;;;;9.13;4.63;;;;;;;;;;5008919;28;20370;-89
2021/03/30 12:37:40;;;;;;;9.13;4.40;;;;;;;;;;5008174;28;20791;-90
2021/03/30 12:40:06;;;;;;;8.13;4.18;;;;;;;;;;5010403;28;20458;-90
2021/03/30 12:42:31;;;;;;;12.70;3.42;;;;;;;;;;5023519;28;20082;-90
2021/03/30 12:44:56;;;;;;;9.77;4.30;;;;;;;;;;5011594;28;20083;-90
2021/03/30 12:47:22;;;;;;;7.22;3.40;;;;;;;;;;5009310;28;20441;-90
2021/03/30 12:49:47;;;;;;;11.68;4.03;;;;;;;;;;5010263;28;20048;-90
2021/03/30 12:52:12;;;;;;;8.10;3.90;;;;;;;;;;5030083;28;20535;-90
2021/03/30 12:54:37;;;;;;;10.40;3.58;;;;;;;;;;5002088;28;20806;-90
2021/03/30 12:57:03;;;;;;;7.10;3.28;;;;;;;;;;5010936;28;20107;-90
2021/03/30 12:59:34;;;;;;;7.75;3.70;;;;;;;;;;5009316;28;20017;-90
2021/03/30 13:02:00;;;;;;;7.28;3.25;;;;;;;;;;5001657;28;20014;-90
2021/03/30 13:04:25;;;;;;;7.28;3.92;;;;;;;;;;5008090;28;20039;-90
2021/03/30 13:06:51;;;;;;;9.88;4.05;;;;;;;;;;5021586;28;20028;-90
2021/03/30 13:09:16;;;;;;;6.47;3.20;;;;;;;;;;5019024;28;20100;-90
2021/03/30 13:11:42;;;;;;;9.68;3.00;;;;;;;;;;5024495;28;20022;-89
2021/03/30 13:14:07;;;;;;;7.72;2.80;;;;;;;;;;5016802;28;20049;-90
2021/03/30 13:16:32;;;;;;;10.73;3.00;;;;;;;;;;5018079;28;20472;-89
2021/03/30 13:18:57;;;;;;;6.87;2.50;;;;;;;;;;5017847;28;20036;-89
2021/03/30 13:21:23;;;;;;;7.18;3.15;;;;;;;;;;5034595;28;20260;-91
2021/03/30 13:23:48;;;;;;;15.77;3.40;;;;;;;;;;5020031;28;20022;-91
2021/03/30 13:26:14;;;;;;;6.68;3.42;;;;;;;;;;5022336;28;20440;-89
2021/03/30 13:28:39;;;;;;;7.68;3.13;;;;;;;;;;5005417;28;20025;-89
2021/03/30 13:31:04;;;;;;;7.47;2.60;;;;;;;;;;5011223;28;20439;-90
2021/03/30 13:33:30;;;;;;;10.25;3.50;;;;;;;;;;5010414;28;20109;-90
2021/03/30 13:35:56;;;;;;;9.60;4.03;;;;;;;;;;5027720;28;20022;-90
2021/03/30 13:38:21;;;;;;;9.93;4.45;;;;;;;;;;5009638;28;20029;-90
2021/03/30 13:40:46;;;;;;;9.98;3.40;;;;;;;;;;4997632;28;20024;-90
2021/03/30 13:43:11;;;;;;;8.88;2.75;;;;;;;;;;5002499;28;20018;-90
2021/03/30 13:45:40;;;;;;;5.55;2.97;;;;;;;;;;5020145;28;20075;-89
2021/03/30 13:48:06;;;;;;;6.03;2.80;;;;;;;;;;5016382;28;20021;-89
2021/03/30 13:50:37;;;;;;;5.80;2.70;;;;;;;;;;5022866;28;20021;-90
2021/03/30 13:53:28;;;;;;;4.35;2.60;;;;;;;;;;5010892;28;20033;-89
2021/03/30 13:55:54;;;;;;;6.50;3.05;;;;;;;;;;5008469;28;20401;-89
2021/03/30 13:58:32;;;;;;;4.82;2.72;;;;;;;;;;5013459;28;20021;-89
2021/03/30 14:01:10;;;;;;;10.20;3.15;;;;;;;;;;5012776;28;20024;-90
2021/03/30 14:03:35;;;;;;;5.57;2.10;;;;;;;;;;5031724;28;20053;-89
2021/03/30 14:06:00;;;;;;;8.52;2.22;;;;;;;;;;5013161;28;20453;-90
2021/03/30 14:08:25;;;;;;;9.95;1.90;;;;;;;;;;5031493;28;20030;-89
2021/03/30 14:10:51;;;;;;;5.72;2.08;;;;;;;;;;5013986;28;20053;-90
2021/03/30 14:13:29;;;;;;;7.55;2.20;;;;;;;;;;5021913;28;20030;-90
2021/03/30 14:16:00;;;;;;;6.65;2.22;;;;;;;;;;5000267;28;20026;-90
2021/03/30 14:21:08;;;;;;;4.13;1.38;;;;;;;;;;5033418;28;20553;-89
2021/03/30 14:23:52;;;;;;;3.33;1.90;;;;;;;;;;5013051;28;20546;-89
2021/03/30 14:26:25;;;;;;;6.57;1.90;;;;;;;;;;5013183;28;20026;-89
2021/03/30 14:28:54;;;;;;;4.68;1.80;;;;;;;;;;5030965;28;20092;-90
2021/03/30 14:31:20;;;;;;;7.38;1.90;;;;;;;;;;5012780;28;20025;-90
2021/03/30 14:33:49;;;;;;;5.85;2.15;;;;;;;;;;5014172;28;20017;-90
2021/03/30 14:36:15;;;;;;;2.77;1.40;;;;;;;;;;5030544;28;20406;-90
2021/03/30 14:38:42;;;;;;;5.35;1.75;;;;;;;;;;5029281;28;20044;-89
2021/03/30 14:41:07;;;;;;;5.53;2.10;;;;;;;;;;5012861;28;20483;-89